Time;durP1;ratioP1;P1;durP2;ratioP2;P2;SDS_P1;SDS_P2;PMS_P1;PMS_P2;Temp;Humidity;BMP_temperature;BMP_pressure;BME280_temperature;BME280_humidity;BME280_pressure;Samples;Min_cycle;Max_cycle;Signal;HPM_P1;HPM_P2
2023/09/22 00:01:07;;;;;;;5.10;1.20;;;;;;;20.56;60.02;96208.94;5036917;28;20198;-72
2023/09/22 00:03:32;;;;;;;4.97;1.13;;;;;;;20.52;59.71;96201.69;5037855;28;20442;-72
2023/09/22 00:05:58;;;;;;;1.57;0.80;;;;;;;20.49;59.68;96218.13;5030378;28;20438;-72
2023/09/22 00:08:23;;;;;;;1.30;0.90;;;;;;;20.55;59.67;96214.50;5040148;28;20187;-72
2023/09/22 00:10:49;;;;;;;2.20;1.00;;;;;;;20.52;60.01;96217.66;5032224;28;20190;-71
2023/09/22 00:13:14;;;;;;;1.97;0.90;;;;;;;20.37;59.87;96221.66;5017647;28;20184;-72
2023/09/22 00:15:40;;;;;;;1.00;0.70;;;;;;;20.37;59.67;96218.16;5023318;28;20280;-72
2023/09/22 00:18:05;;;;;;;1.33;0.70;;;;;;;20.27;59.60;96216.16;5029477;28;20616;-72
2023/09/22 00:20:31;;;;;;;1.87;0.90;;;;;;;20.17;59.91;96216.75;5040627;28;20238;-72
2023/09/22 00:22:56;;;;;;;1.00;0.70;;;;;;;20.20;60.20;96212.81;5027697;28;20283;-72
2023/09/22 00:25:22;;;;;;;5.00;0.70;;;;;;;20.23;60.05;96209.69;5019626;28;20259;-72
2023/09/22 00:27:48;;;;;;;1.93;0.60;;;;;;;20.25;59.97;96207.59;5042251;28;20195;-72
2023/09/22 00:30:14;;;;;;;5.57;0.90;;;;;;;20.26;60.09;96199.38;5040941;28;20184;-72
2023/09/22 00:32:39;;;;;;;0.90;0.67;;;;;;;20.25;59.85;96192.44;5038176;28;20564;-71
2023/09/22 00:35:06;;;;;;;0.93;0.70;;;;;;;20.24;60.04;96184.72;5031820;28;20211;-73
2023/09/22 00:37:33;;;;;;;1.50;0.80;;;;;;;20.11;59.71;96191.09;5028051;28;20340;-72
2023/09/22 00:39:59;;;;;;;1.10;0.80;;;;;;;20.03;60.20;96197.63;5033950;28;20437;-72
2023/09/22 00:42:24;;;;;;;1.87;0.90;;;;;;;19.99;60.07;96208.97;5039391;28;20832;-73
2023/09/22 00:44:50;;;;;;;1.60;0.80;;;;;;;20.08;60.48;96219.00;5031794;28;20744;-72
2023/09/22 00:47:15;;;;;;;3.33;1.07;;;;;;;20.03;60.60;96216.25;5034221;28;20742;-71
2023/09/22 00:49:42;;;;;;;1.77;0.90;;;;;;;20.03;60.52;96240.19;5018886;28;20196;-71
2023/09/22 00:52:08;;;;;;;1.13;0.90;;;;;;;20.04;60.15;96247.09;5016001;28;20191;-73
2023/09/22 00:54:34;;;;;;;1.40;0.90;;;;;;;19.82;60.00;96244.25;5012159;28;20454;-70
2023/09/22 00:57:00;;;;;;;3.83;1.00;;;;;;;19.96;60.38;96244.81;5017688;28;20298;-71
2023/09/22 00:59:26;;;;;;;3.53;1.00;;;;;;;19.99;60.53;96241.69;5041017;28;20190;-71
2023/09/22 01:01:51;;;;;;;1.10;0.90;;;;;;;19.90;59.96;96232.47;5032989;28;20435;-70
2023/09/22 01:04:19;;;;;;;4.13;0.90;;;;;;;19.80;59.47;96233.84;5028713;28;20238;-73
2023/09/22 01:06:46;;;;;;;1.73;0.80;;;;;;;19.72;59.84;96236.06;5030026;28;20216;-71
2023/09/22 01:09:13;;;;;;;1.60;1.00;;;;;;;19.77;59.82;96226.34;5011453;28;20464;-71
2023/09/22 01:11:39;;;;;;;1.20;1.10;;;;;;;19.77;59.52;96213.06;5032791;28;20746;-71
2023/09/22 01:14:05;;;;;;;1.73;1.17;;;;;;;19.80;59.06;96201.13;5015959;28;20458;-70
2023/09/22 01:16:30;;;;;;;4.90;1.00;;;;;;;19.82;58.40;96192.91;5031648;28;20271;-72
2023/09/22 01:18:57;;;;;;;1.20;0.90;;;;;;;19.82;58.82;96198.25;5032344;28;20195;-71
2023/09/22 01:21:28;;;;;;;1.20;1.00;;;;;;;19.84;59.39;96188.19;5023661;28;20184;-71
2023/09/22 01:23:53;;;;;;;2.60;1.10;;;;;;;19.89;59.47;96193.63;5029587;28;20441;-71
2023/09/22 01:26:21;;;;;;;1.23;0.90;;;;;;;19.70;58.73;96191.09;5032992;28;20450;-71
2023/09/22 01:28:46;;;;;;;1.20;0.87;;;;;;;19.74;58.44;96180.81;5020416;28;20191;-71
2023/09/22 01:31:12;;;;;;;1.80;1.10;;;;;;;19.69;58.36;96181.50;5043050;28;20519;-72
2023/09/22 01:33:39;;;;;;;2.50;0.97;;;;;;;19.72;58.46;96202.31;5012852;28;20191;-71
2023/09/22 01:36:04;;;;;;;1.20;1.00;;;;;;;19.75;58.86;96212.47;5029022;28;20214;-72
2023/09/22 01:38:30;;;;;;;2.20;0.80;;;;;;;19.78;58.87;96217.31;5033818;28;20837;-71
2023/09/22 01:40:58;;;;;;;1.93;1.00;;;;;;;19.79;59.09;96221.59;5030467;28;20201;-71
2023/09/22 01:43:23;;;;;;;3.93;1.03;;;;;;;19.81;58.77;96218.72;5034652;28;20187;-71
2023/09/22 01:45:49;;;;;;;1.10;0.83;;;;;;;19.73;58.79;96225.19;5036558;28;20504;-70
2023/09/22 01:48:14;;;;;;;1.20;1.03;;;;;;;19.69;59.03;96225.91;5014125;28;20200;-70
2023/09/22 01:50:40;;;;;;;1.40;1.10;;;;;;;19.73;59.01;96221.72;5027221;28;20214;-71
2023/09/22 01:53:12;;;;;;;2.60;1.17;;;;;;;19.68;58.93;96217.09;5028919;28;20796;-73
2023/09/22 01:55:38;;;;;;;1.70;1.03;;;;;;;19.70;58.53;96196.44;5035067;28;20269;-72
2023/09/22 01:58:04;;;;;;;1.37;1.20;;;;;;;19.67;58.90;96207.50;5014785;28;20437;-71
2023/09/22 02:00:34;;;;;;;2.40;1.00;;;;;;;19.64;58.69;96208.00;5035939;28;20434;-71
2023/09/22 02:03:00;;;;;;;1.57;1.17;;;;;;;19.59;59.06;96197.25;5028199;28;20516;-72
2023/09/22 02:05:29;;;;;;;1.13;1.00;;;;;;;19.58;58.53;96185.84;5038550;28;20526;-72
2023/09/22 02:07:55;;;;;;;2.13;1.20;;;;;;;19.62;58.53;96194.94;5034475;28;20190;-71
2023/09/22 02:10:21;;;;;;;3.47;1.03;;;;;;;19.57;58.75;96191.38;5042790;28;21017;-71
2023/09/22 02:12:46;;;;;;;2.17;1.00;;;;;;;19.53;58.94;96191.03;5035820;28;20522;-71
2023/09/22 02:15:13;;;;;;;7.33;1.00;;;;;;;19.52;58.66;96191.28;5037134;28;20806;-72
2023/09/22 02:17:39;;;;;;;2.03;1.13;;;;;;;19.51;59.59;96197.63;5043638;28;20241;-72
2023/09/22 02:20:23;;;;;;;2.80;0.83;;;;;;;19.51;59.61;96192.31;5041084;28;20425;-71
2023/09/22 02:22:50;;;;;;;1.83;0.90;;;;;;;19.49;59.38;96206.66;5040647;28;20433;-71
2023/09/22 02:25:17;;;;;;;2.27;0.90;;;;;;;19.45;59.36;96205.47;5035354;28;20540;-71
2023/09/22 02:27:45;;;;;;;1.20;1.00;;;;;;;19.46;59.46;96217.72;5032608;28;20450;-71
2023/09/22 02:30:11;;;;;;;1.53;1.17;;;;;;;19.45;59.41;96217.97;5029935;28;20441;-72
2023/09/22 02:32:39;;;;;;;1.57;0.90;;;;;;;19.44;59.63;96217.16;5030025;28;20430;-70
2023/09/22 02:35:05;;;;;;;1.40;1.10;;;;;;;19.47;59.70;96210.56;5038870;28;20273;-70
2023/09/22 02:37:30;;;;;;;1.93;1.30;;;;;;;19.53;59.97;96200.88;5035791;28;20457;-71
2023/09/22 02:39:56;;;;;;;5.50;0.90;;;;;;;19.54;60.25;96194.47;5033532;28;20837;-72
2023/09/22 02:42:21;;;;;;;2.20;1.17;;;;;;;19.59;59.75;96213.19;5037548;28;20728;-71
2023/09/22 02:44:47;;;;;;;1.83;1.00;;;;;;;19.58;59.71;96220.38;5030371;28;20275;-70
2023/09/22 02:47:13;;;;;;;1.47;1.03;;;;;;;19.56;59.75;96222.47;5038249;28;20913;-70
2023/09/22 02:49:38;;;;;;;1.30;1.10;;;;;;;19.56;60.22;96225.13;5043438;28;20905;-70
2023/09/22 02:52:03;;;;;;;4.60;1.03;;;;;;;19.58;60.37;96220.38;5036632;28;20648;-72
2023/09/22 02:54:29;;;;;;;2.47;0.87;;;;;;;19.58;60.40;96230.19;5039468;28;20265;-71
2023/09/22 02:56:55;;;;;;;3.20;0.90;;;;;;;19.57;60.56;96224.06;5041232;28;20218;-69
2023/09/22 02:59:22;;;;;;;1.30;1.17;;;;;;;19.59;59.93;96215.88;5007817;28;20791;-71
2023/09/22 03:01:47;;;;;;;1.60;1.10;;;;;;;19.56;59.37;96193.22;5038562;28;20487;-72
2023/09/22 03:04:13;;;;;;;1.00;0.90;;;;;;;19.56;59.51;96205.69;4996644;28;20426;-72
2023/09/22 03:06:39;;;;;;;1.07;0.90;;;;;;;19.57;59.46;96194.03;5014183;28;20216;-71
2023/09/22 03:09:09;;;;;;;2.83;1.07;;;;;;;19.56;59.64;96184.44;5033248;28;20430;-71
2023/09/22 03:11:35;;;;;;;3.53;1.00;;;;;;;19.57;59.81;96191.38;5035323;28;20223;-72
2023/09/22 03:14:01;;;;;;;2.53;0.93;;;;;;;19.48;59.88;96207.69;5030294;28;20484;-73
2023/09/22 03:16:29;;;;;;;2.37;1.10;;;;;;;19.45;59.75;96221.44;5037583;28;20437;-71
2023/09/22 03:18:57;;;;;;;2.30;0.90;;;;;;;19.44;59.80;96214.50;5041958;28;20195;-71
2023/09/22 03:21:23;;;;;;;1.20;0.87;;;;;;;19.43;60.01;96214.75;5032760;28;21032;-72
2023/09/22 03:23:53;;;;;;;2.03;0.97;;;;;;;19.39;60.08;96227.69;5012924;28;20521;-71
2023/09/22 03:26:19;;;;;;;1.20;0.97;;;;;;;19.42;59.94;96216.56;5012258;28;20454;-70
2023/09/22 03:28:46;;;;;;;2.37;1.13;;;;;;;19.40;59.69;96218.69;5035878;28;20438;-71
2023/09/22 03:31:11;;;;;;;1.50;1.00;;;;;;;19.43;59.93;96217.41;5020586;28;20447;-71
2023/09/22 03:33:40;;;;;;;2.03;1.00;;;;;;;19.39;60.08;96243.63;5024730;28;20442;-70
2023/09/22 03:36:10;;;;;;;1.23;0.80;;;;;;;19.37;59.95;96264.28;5030469;28;20203;-71
2023/09/22 03:38:39;;;;;;;4.20;1.30;;;;;;;19.31;60.29;96252.75;5029454;28;20497;-71
2023/09/22 03:41:05;;;;;;;2.70;0.90;;;;;;;19.28;60.42;96273.66;5026114;28;20425;-72
2023/09/22 03:43:30;;;;;;;4.03;1.20;;;;;;;19.27;60.62;96272.81;5034334;28;20418;-71
2023/09/22 03:45:56;;;;;;;1.50;1.00;;;;;;;19.26;60.80;96286.34;5030295;28;20199;-71
2023/09/22 03:48:22;;;;;;;4.43;1.00;;;;;;;19.19;61.05;96286.47;5029865;28;20553;-71
2023/09/22 03:50:48;;;;;;;8.47;2.43;;;;;;;19.21;61.28;96286.22;5031065;28;20199;-71
2023/09/22 03:53:13;;;;;;;1.50;1.00;;;;;;;19.26;61.58;96275.72;5024750;28;20485;-70
2023/09/22 03:55:39;;;;;;;3.53;1.10;;;;;;;19.27;61.58;96267.50;5023032;28;20454;-72
2023/09/22 03:58:05;;;;;;;3.87;1.37;;;;;;;19.26;61.66;96257.13;5033329;28;20191;-72
2023/09/22 04:00:30;;;;;;;3.23;1.00;;;;;;;19.32;61.04;96250.88;5041028;28;20195;-71
2023/09/22 04:02:56;;;;;;;1.23;0.90;;;;;;;19.34;60.96;96231.00;5035532;28;20206;-71
2023/09/22 04:05:22;;;;;;;1.20;1.10;;;;;;;19.27;60.95;96225.03;5037018;28;20183;-72
2023/09/22 04:07:48;;;;;;;1.87;1.10;;;;;;;19.31;61.33;96231.50;5034512;28;20272;-72
2023/09/22 04:10:15;;;;;;;4.40;1.10;;;;;;;19.31;61.61;96239.47;5040754;28;20930;-71
2023/09/22 04:12:40;;;;;;;1.70;1.00;;;;;;;19.28;60.95;96220.53;5040604;28;20227;-71
2023/09/22 04:15:08;;;;;;;2.17;1.00;;;;;;;19.23;61.08;96215.09;5040112;28;20454;-72
2023/09/22 04:17:34;;;;;;;7.23;1.10;;;;;;;19.18;61.19;96219.25;5040673;28;20788;-72
2023/09/22 04:20:07;;;;;;;3.80;1.37;;;;;;;19.21;60.99;96235.75;5043803;28;23364;-71
2023/09/22 04:22:36;;;;;;;2.20;0.90;;;;;;;19.24;60.94;96232.66;5030118;28;20466;-71
2023/09/22 04:25:10;;;;;;;2.13;1.00;;;;;;;19.27;61.05;96245.47;5028251;28;20781;-71
2023/09/22 04:27:42;;;;;;;1.60;1.07;;;;;;;19.27;60.93;96240.16;5029563;28;20438;-71
2023/09/22 04:30:09;;;;;;;1.43;0.80;;;;;;;19.31;61.06;96235.97;5026561;28;20803;-72
2023/09/22 04:32:36;;;;;;;2.40;0.87;;;;;;;19.30;60.75;96234.38;5030070;28;20429;-71
2023/09/22 04:35:02;;;;;;;3.37;1.33;;;;;;;19.29;60.72;96244.19;5018075;28;20464;-71
2023/09/22 04:37:28;;;;;;;1.97;1.30;;;;;;;19.31;60.92;96235.97;5032471;28;20455;-71
2023/09/22 04:39:54;;;;;;;1.30;1.10;;;;;;;19.28;60.73;96231.94;5032367;28;20438;-72
2023/09/22 04:42:20;;;;;;;2.00;1.20;;;;;;;19.27;61.26;96232.19;5037744;28;20198;-71
2023/09/22 04:44:46;;;;;;;2.20;1.07;;;;;;;19.25;60.61;96245.69;5039367;28;20465;-72
2023/09/22 04:47:11;;;;;;;2.23;1.23;;;;;;;19.24;60.48;96243.28;5034432;28;20481;-71
2023/09/22 04:49:36;;;;;;;7.07;1.23;;;;;;;19.17;60.32;96225.59;5037909;28;20202;-71
2023/09/22 04:52:05;;;;;;;1.40;0.80;;;;;;;19.20;60.41;96229.66;5030512;28;20198;-73
2023/09/22 04:54:30;;;;;;;1.50;1.20;;;;;;;19.25;60.67;96223.66;5038187;28;20211;-71
2023/09/22 04:56:55;;;;;;;2.77;1.20;;;;;;;19.26;61.30;96231.38;5043749;28;20985;-71
2023/09/22 04:59:21;;;;;;;1.70;1.30;;;;;;;19.26;61.50;96234.03;5031419;28;20621;-71
2023/09/22 05:01:46;;;;;;;10.57;1.37;;;;;;;19.26;61.92;96239.34;5027786;28;20223;-71
2023/09/22 05:04:12;;;;;;;4.80;1.47;;;;;;;19.18;61.44;96231.72;5041866;28;20184;-71
2023/09/22 05:06:37;;;;;;;1.83;1.20;;;;;;;19.10;61.26;96238.19;5036079;28;20208;-71
2023/09/22 05:09:03;;;;;;;3.00;1.63;;;;;;;19.07;61.17;96243.16;5027844;28;20237;-71
2023/09/22 05:11:29;;;;;;;2.10;1.23;;;;;;;18.92;60.80;96246.22;5024526;28;20566;-71
2023/09/22 05:13:54;;;;;;;4.40;1.20;;;;;;;18.86;61.03;96251.41;5044603;28;20187;-71
2023/09/22 05:16:20;;;;;;;5.90;1.73;;;;;;;18.93;61.18;96238.03;5028017;28;20632;-71
2023/09/22 05:18:46;;;;;;;2.90;1.40;;;;;;;18.92;61.10;96248.84;4994646;28;20266;-72
2023/09/22 05:21:11;;;;;;;3.20;1.10;;;;;;;18.73;61.43;96262.22;4999080;28;20190;-70
2023/09/22 05:23:37;;;;;;;1.00;0.80;;;;;;;18.75;61.52;96257.50;5032052;28;20426;-70
2023/09/22 05:26:07;;;;;;;3.13;0.90;;;;;;;18.74;61.81;96263.84;5027448;28;20215;-72
2023/09/22 05:28:32;;;;;;;2.73;1.90;;;;;;;18.80;62.15;96276.19;5028631;28;20209;-72
2023/09/22 05:30:58;;;;;;;9.73;2.10;;;;;;;18.89;61.88;96282.00;5009723;28;20426;-70
2023/09/22 05:33:24;;;;;;;9.13;4.50;;;;;;;18.93;61.50;96290.28;5025731;28;20188;-72
2023/09/22 05:35:50;;;;;;;8.30;2.80;;;;;;;18.99;61.60;96297.41;5027683;28;20207;-71
2023/09/22 05:38:16;;;;;;;5.87;2.40;;;;;;;19.01;61.39;96303.28;5043797;28;20190;-71
2023/09/22 05:40:43;;;;;;;14.47;2.40;;;;;;;19.03;61.11;96311.81;5038779;28;20219;-72
2023/09/22 05:43:10;;;;;;;25.50;2.20;;;;;;;19.02;60.79;96316.31;5036660;28;20438;-72
2023/09/22 05:45:36;;;;;;;6.00;2.40;;;;;;;19.05;61.17;96315.06;5026181;28;20430;-72
2023/09/22 05:48:02;;;;;;;7.47;1.30;;;;;;;19.06;60.36;96313.22;5038139;28;20791;-73
2023/09/22 05:50:28;;;;;;;5.20;1.50;;;;;;;18.97;60.96;96316.19;5039768;28;20272;-70
2023/09/22 05:52:53;;;;;;;9.60;2.50;;;;;;;19.03;60.81;96319.78;5030019;28;20911;-71
2023/09/22 05:55:19;;;;;;;2.40;1.80;;;;;;;19.05;60.43;96324.88;5037780;28;20230;-71
2023/09/22 05:57:48;;;;;;;2.27;2.00;;;;;;;19.06;60.65;96327.28;5041055;28;20200;-73
2023/09/22 06:00:17;;;;;;;3.23;1.30;;;;;;;19.07;60.55;96330.78;5025028;28;20187;-71
2023/09/22 06:02:47;;;;;;;4.00;1.67;;;;;;;19.09;60.28;96334.00;5019545;28;20464;-71
2023/09/22 06:05:13;;;;;;;6.13;1.90;;;;;;;19.11;60.38;96331.91;5032066;28;20425;-71
2023/09/22 06:07:38;;;;;;;3.67;2.43;;;;;;;19.11;60.08;96330.09;5039385;28;20556;-70
2023/09/22 06:10:06;;;;;;;3.50;1.60;;;;;;;19.05;59.46;96328.31;5035198;28;20334;-70
2023/09/22 06:12:31;;;;;;;12.13;1.80;;;;;;;19.01;59.42;96338.59;5041394;28;20229;-70
2023/09/22 06:14:59;;;;;;;1.67;1.20;;;;;;;19.06;59.41;96350.41;5038790;28;20497;-70
2023/09/22 06:17:25;;;;;;;1.73;1.00;;;;;;;19.03;59.48;96351.63;5030202;28;20208;-70
2023/09/22 06:19:51;;;;;;;3.27;1.37;;;;;;;19.04;59.62;96353.25;5015409;28;20430;-69
2023/09/22 06:22:17;;;;;;;2.10;1.30;;;;;;;18.95;59.46;96347.50;5030754;28;20442;-70
2023/09/22 06:24:42;;;;;;;1.90;1.20;;;;;;;18.97;59.79;96357.88;5028827;28;20429;-71
2023/09/22 06:27:08;;;;;;;1.83;1.50;;;;;;;19.01;59.55;96362.50;5035019;28;20203;-70
2023/09/22 06:29:33;;;;;;;6.03;2.70;;;;;;;19.07;60.03;96368.75;5040932;28;20193;-71
2023/09/22 06:31:58;;;;;;;3.77;2.33;;;;;;;19.11;60.01;96356.63;5035364;28;20662;-70
2023/09/22 06:34:24;;;;;;;2.03;1.10;;;;;;;19.07;59.70;96342.19;5029213;28;20242;-71
2023/09/22 06:36:50;;;;;;;1.57;0.97;;;;;;;18.97;59.74;96344.59;5024017;28;20330;-70
2023/09/22 06:39:16;;;;;;;1.70;1.37;;;;;;;19.02;60.08;96344.72;5032083;28;20222;-70
2023/09/22 06:41:42;;;;;;;1.97;1.40;;;;;;;19.09;60.25;96350.75;5038460;28;20230;-71
2023/09/22 06:44:07;;;;;;;2.27;1.20;;;;;;;19.09;60.54;96356.06;5036816;28;22778;-70
2023/09/22 06:46:35;;;;;;;3.00;1.30;;;;;;;19.07;60.10;96354.66;5030093;28;20204;-70
2023/09/22 06:49:03;;;;;;;1.33;1.00;;;;;;;19.00;60.67;96358.22;5032332;28;20302;-70
2023/09/22 06:51:30;;;;;;;5.00;1.20;;;;;;;19.02;60.59;96360.66;5033721;28;21030;-71
2023/09/22 06:53:56;;;;;;;5.40;1.50;;;;;;;19.11;60.53;96356.63;5030497;28;20462;-69
2023/09/22 06:56:22;;;;;;;2.70;1.10;;;;;;;19.13;60.51;96341.28;5013424;28;20791;-70
2023/09/22 06:58:49;;;;;;;4.87;1.60;;;;;;;19.14;60.32;96329.63;5032002;28;20428;-70
2023/09/22 07:01:15;;;;;;;2.07;1.27;;;;;;;19.17;60.15;96320.41;5028029;28;20422;-70
2023/09/22 07:03:42;;;;;;;3.77;1.10;;;;;;;19.12;60.19;96329.06;5024368;28;20793;-70
2023/09/22 07:06:10;;;;;;;1.83;0.90;;;;;;;19.12;60.40;96342.31;5025716;28;20489;-70
2023/09/22 07:08:39;;;;;;;1.30;1.03;;;;;;;19.00;60.39;96331.66;5032745;28;21137;-70
2023/09/22 07:11:08;;;;;;;4.20;0.93;;;;;;;19.00;60.38;96333.53;5016504;28;20438;-70
2023/09/22 07:13:33;;;;;;;1.70;1.60;;;;;;;19.06;60.14;96329.94;5026092;28;20430;-71
2023/09/22 07:15:59;;;;;;;6.20;1.10;;;;;;;19.07;60.17;96331.56;5028407;28;21044;-70
2023/09/22 07:18:25;;;;;;;2.20;1.27;;;;;;;19.10;60.41;96328.47;5020868;28;20187;-71
2023/09/22 07:20:51;;;;;;;2.53;1.27;;;;;;;19.14;60.11;96323.50;5003012;28;20185;-71
2023/09/22 07:23:17;;;;;;;2.37;1.20;;;;;;;19.12;60.20;96339.66;5026513;28;20419;-72
2023/09/22 07:25:43;;;;;;;2.00;1.60;;;;;;;19.14;60.21;96342.91;5035106;28;20458;-72
2023/09/22 07:28:08;;;;;;;2.43;1.30;;;;;;;19.15;60.11;96343.72;5043228;28;20191;-71
2023/09/22 07:30:37;;;;;;;3.23;1.10;;;;;;;19.02;60.29;96344.72;5029894;28;20270;-71
2023/09/22 07:33:02;;;;;;;4.40;1.13;;;;;;;19.07;60.23;96341.41;5043636;28;20187;-71
2023/09/22 07:35:28;;;;;;;7.10;2.03;;;;;;;19.12;60.48;96350.28;5040400;28;20520;-70
2023/09/22 07:37:53;;;;;;;10.60;9.10;;;;;;;19.19;60.80;96345.69;5040756;28;20735;-71
2023/09/22 07:40:19;;;;;;;4.80;3.07;;;;;;;19.21;60.30;96357.91;5037890;28;20717;-72
2023/09/22 07:42:44;;;;;;;2.83;2.50;;;;;;;19.23;60.01;96350.53;5042250;28;20191;-73
2023/09/22 07:45:10;;;;;;;7.43;3.77;;;;;;;19.25;60.03;96375.03;5032501;28;20214;-74
2023/09/22 07:47:37;;;;;;;5.33;3.37;;;;;;;19.25;60.10;96385.66;5041397;28;20246;-74
2023/09/22 07:50:04;;;;;;;5.57;3.13;;;;;;;19.27;59.93;96388.91;5031376;28;20415;-72
2023/09/22 07:52:29;;;;;;;7.57;3.27;;;;;;;19.23;60.18;96388.53;5046200;28;20461;-72
2023/09/22 07:54:56;;;;;;;8.70;5.60;;;;;;;19.27;60.25;96378.28;5030823;28;20485;-73
2023/09/22 07:57:21;;;;;;;1.37;1.00;;;;;;;19.24;59.59;96370.75;5044586;28;20230;-73
2023/09/22 07:59:47;;;;;;;4.30;2.93;;;;;;;19.25;60.29;96383.00;5012085;28;20411;-71
2023/09/22 08:02:12;;;;;;;2.70;1.50;;;;;;;19.19;60.06;96385.50;5045109;28;20204;-73
2023/09/22 08:04:39;;;;;;;2.10;1.30;;;;;;;19.11;60.32;96393.81;5034689;28;20187;-73
2023/09/22 08:07:06;;;;;;;7.60;2.13;;;;;;;19.08;60.59;96401.44;5030669;28;20216;-74
2023/09/22 08:09:32;;;;;;;8.40;3.60;;;;;;;19.11;60.89;96396.47;5045383;28;20513;-71
2023/09/22 08:11:57;;;;;;;1.83;1.70;;;;;;;19.03;61.14;96394.94;5038140;28;20435;-73
2023/09/22 08:14:25;;;;;;;2.70;1.33;;;;;;;19.10;60.58;96389.53;5030193;28;20492;-74
2023/09/22 08:16:50;;;;;;;6.23;1.40;;;;;;;19.20;60.67;96383.69;5028240;28;20222;-73
2023/09/22 08:19:16;;;;;;;3.70;1.50;;;;;;;19.27;60.04;96388.91;5039660;28;20429;-74
2023/09/22 08:21:42;;;;;;;2.03;1.10;;;;;;;19.30;60.17;96399.88;5023483;28;20197;-73
2023/09/22 08:24:08;;;;;;;11.07;1.20;;;;;;;19.44;59.87;96405.78;5037229;28;20183;-74
2023/09/22 08:26:34;;;;;;;2.83;1.07;;;;;;;19.57;59.96;96404.78;5037618;28;20465;-73
2023/09/22 08:29:05;;;;;;;3.10;1.37;;;;;;;19.61;59.92;96415.75;5029702;28;20241;-73
2023/09/22 08:31:31;;;;;;;5.70;1.10;;;;;;;19.58;59.64;96405.56;5044805;28;20802;-73
2023/09/22 08:33:56;;;;;;;6.40;2.03;;;;;;;19.71;59.35;96407.22;5010167;28;20422;-74
2023/09/22 08:36:22;;;;;;;1.60;1.10;;;;;;;19.58;59.81;96403.72;5048201;28;20199;-73
2023/09/22 08:38:47;;;;;;;3.00;0.93;;;;;;;19.73;59.31;96402.44;5032186;28;20299;-73
2023/09/22 08:41:13;;;;;;;2.23;1.10;;;;;;;19.68;59.51;96408.47;5025395;28;20180;-74
2023/09/22 08:43:40;;;;;;;2.50;1.10;;;;;;;19.77;59.48;96407.09;5034239;28;20275;-74
2023/09/22 08:46:05;;;;;;;4.43;1.10;;;;;;;19.85;59.32;96410.44;5013294;28;20207;-73
2023/09/22 08:48:31;;;;;;;4.50;1.40;;;;;;;19.94;59.05;96409.91;5036588;28;20430;-75
2023/09/22 08:50:57;;;;;;;3.90;0.90;;;;;;;20.01;58.94;96399.16;5038000;28;20211;-72
2023/09/22 08:53:23;;;;;;;4.17;1.10;;;;;;;20.06;58.37;96401.91;5026074;28;20194;-73
2023/09/22 08:55:50;;;;;;;6.90;1.20;;;;;;;20.10;58.68;96408.38;5033814;28;20457;-74
2023/09/22 08:58:18;;;;;;;2.30;1.10;;;;;;;20.16;58.35;96416.50;5028593;28;20187;-73
2023/09/22 09:00:48;;;;;;;2.33;1.00;;;;;;;20.10;58.36;96413.69;5034290;28;20437;-74
2023/09/22 09:03:14;;;;;;;2.60;1.00;;;;;;;20.10;58.09;96411.03;5019324;28;20522;-74
2023/09/22 09:05:40;;;;;;;2.87;1.40;;;;;;;19.95;58.08;96416.03;5016080;28;20541;-74
2023/09/22 09:08:13;;;;;;;5.57;1.30;;;;;;;19.98;58.52;96420.88;5029902;28;20211;-72
2023/09/22 09:10:40;;;;;;;5.67;1.23;;;;;;;20.05;58.36;96416.25;5032353;28;20568;-73
2023/09/22 09:13:06;;;;;;;8.10;1.80;;;;;;;20.09;58.41;96409.44;5031446;28;20421;-73
2023/09/22 09:15:57;;;;;;;8.43;1.60;;;;;;;20.10;58.22;96418.19;4999056;28;21014;-74
2023/09/22 09:18:24;;;;;;;3.73;1.27;;;;;;;20.06;59.05;96414.41;5021108;28;20497;-73
2023/09/22 09:21:10;;;;;;;5.60;1.07;;;;;;;20.08;59.23;96410.47;5037964;28;20847;-74
2023/09/22 09:23:36;;;;;;;1.53;0.90;;;;;;;20.05;58.81;96420.75;5031825;28;20418;-74
2023/09/22 09:26:01;;;;;;;4.80;1.07;;;;;;;20.04;58.37;96435.91;5011555;28;20473;-72
2023/09/22 09:28:28;;;;;;;7.60;1.33;;;;;;;20.06;58.75;96439.13;5037747;28;20194;-74
2023/09/22 09:30:57;;;;;;;4.83;1.00;;;;;;;20.05;58.83;96450.00;5040147;28;20191;-73
2023/09/22 09:33:25;;;;;;;22.37;2.03;;;;;;;20.02;58.77;96438.00;5031830;28;20445;-73
2023/09/22 09:35:52;;;;;;;1.30;1.00;;;;;;;20.07;59.12;96435.44;5023001;28;20974;-73
2023/09/22 09:38:18;;;;;;;1.77;0.73;;;;;;;20.02;58.89;96448.63;5039847;28;20969;-74
2023/09/22 09:40:44;;;;;;;2.13;1.00;;;;;;;20.01;58.69;96462.16;5037045;28;20953;-74
2023/09/22 09:43:13;;;;;;;4.33;0.80;;;;;;;19.90;59.39;96453.94;5038524;28;20415;-74
2023/09/22 09:45:46;;;;;;;4.57;1.67;;;;;;;20.04;59.06;96433.22;5036512;28;20270;-73
2023/09/22 09:48:16;;;;;;;57.57;4.03;;;;;;;20.29;58.97;96426.84;5034826;28;20488;-73
2023/09/22 09:50:46;;;;;;;2.93;1.00;;;;;;;20.50;58.31;96429.97;5025075;28;20518;-72
2023/09/22 09:53:14;;;;;;;5.10;1.30;;;;;;;20.60;57.66;96432.81;5036430;28;20430;-74
2023/09/22 09:55:43;;;;;;;2.33;1.10;;;;;;;20.66;57.40;96447.88;5027527;28;20874;-74
2023/09/22 09:58:10;;;;;;;3.10;1.10;;;;;;;20.76;57.30;96444.63;5021093;28;20824;-72
2023/09/22 10:00:36;;;;;;;1.47;0.90;;;;;;;20.69;57.01;96436.72;5029069;28;20438;-74
2023/09/22 10:03:03;;;;;;;13.70;1.50;;;;;;;20.76;57.09;96443.81;5014027;28;20419;-72
2023/09/22 10:05:31;;;;;;;1.60;0.80;;;;;;;20.68;56.55;96443.09;5028668;28;20179;-73
2023/09/22 10:07:58;;;;;;;7.70;0.80;;;;;;;20.68;56.77;96435.09;5029337;28;20873;-73
2023/09/22 10:10:25;;;;;;;2.07;0.80;;;;;;;20.83;56.31;96428.50;5010576;28;20423;-73
2023/09/22 10:12:50;;;;;;;3.17;0.80;;;;;;;20.58;56.14;96424.25;5025467;28;20438;-71
2023/09/22 10:15:16;;;;;;;2.80;0.90;;;;;;;20.85;54.57;96415.78;5027639;28;20464;-72
2023/09/22 10:17:41;;;;;;;2.03;0.70;;;;;;;21.04;53.94;96403.06;5013938;28;20203;-69
2023/09/22 10:20:12;;;;;;;1.00;0.60;;;;;;;20.91;53.11;96408.69;5023352;28;20551;-71
2023/09/22 10:22:41;;;;;;;1.30;0.83;;;;;;;20.90;53.47;96405.22;5031914;28;20802;-71
2023/09/22 10:25:19;;;;;;;1.10;0.80;;;;;;;20.83;53.32;96405.38;5021910;28;20442;-71
2023/09/22 10:27:57;;;;;;;2.40;0.90;;;;;;;21.28;52.82;96408.28;5043094;28;20451;-72
2023/09/22 10:30:44;;;;;;;1.70;0.90;;;;;;;21.38;52.70;96413.78;5035386;28;20843;-72
2023/09/22 10:33:16;;;;;;;1.40;0.73;;;;;;;21.70;51.14;96415.09;5037123;28;20460;-70
2023/09/22 10:35:42;;;;;;;1.30;0.70;;;;;;;22.09;49.50;96425.81;5032563;28;20470;-72
2023/09/22 10:38:10;;;;;;;3.30;0.77;;;;;;;22.48;48.79;96425.84;5034353;28;21256;-71
2023/09/22 10:40:36;;;;;;;0.90;0.60;;;;;;;22.86;47.84;96415.34;5029083;28;20426;-71
2023/09/22 10:43:03;;;;;;;0.90;0.67;;;;;;;23.08;47.44;96422.50;5021523;28;20516;-71
2023/09/22 10:45:29;;;;;;;1.00;0.60;;;;;;;22.99;46.05;96417.63;5029706;28;20317;-71
2023/09/22 10:47:57;;;;;;;1.07;0.70;;;;;;;22.88;46.16;96428.44;5023429;28;20978;-70
2023/09/22 10:50:30;;;;;;;2.13;0.93;;;;;;;22.67;46.97;96428.22;5026831;28;20421;-70
2023/09/22 10:52:57;;;;;;;0.93;0.67;;;;;;;22.69;46.90;96426.06;5030926;28;20458;-70
2023/09/22 10:55:28;;;;;;;1.10;0.50;;;;;;;22.40;46.92;96431.59;5031383;28;20466;-69
2023/09/22 10:57:55;;;;;;;1.77;0.93;;;;;;;22.48;47.10;96430.38;5040762;28;20528;-69
2023/09/22 11:00:22;;;;;;;1.20;0.70;;;;;;;22.51;46.89;96422.69;5028269;28;20438;-70
2023/09/22 11:02:47;;;;;;;1.10;0.97;;;;;;;22.39;47.41;96411.28;5037124;28;20939;-70
2023/09/22 11:05:14;;;;;;;2.50;0.83;;;;;;;22.97;46.92;96405.56;5020776;28;20423;-70
2023/09/22 11:07:41;;;;;;;1.97;0.90;;;;;;;22.91;46.11;96403.91;5030707;28;20211;-70
2023/09/22 11:10:07;;;;;;;1.00;0.70;;;;;;;23.01;45.35;96409.34;5029070;28;20513;-69
2023/09/22 11:12:32;;;;;;;0.93;0.70;;;;;;;23.12;46.11;96412.94;5038583;28;20835;-69
2023/09/22 11:14:59;;;;;;;1.83;0.73;;;;;;;23.07;45.46;96416.34;4995584;28;20207;-69
2023/09/22 11:17:46;;;;;;;1.93;0.80;;;;;;;22.99;44.45;96422.16;5012838;28;20217;-69
2023/09/22 11:20:17;;;;;;;2.07;0.50;;;;;;;22.77;44.76;96431.00;5032158;28;20510;-71
2023/09/22 11:22:42;;;;;;;1.43;0.83;;;;;;;22.89;45.07;96422.03;5029956;28;20442;-70
2023/09/22 11:25:09;;;;;;;1.20;0.70;;;;;;;22.66;44.45;96442.63;5021228;28;20476;-73
2023/09/22 11:27:49;;;;;;;1.43;0.80;;;;;;;22.49;44.66;96432.78;5031006;28;20203;-70
2023/09/22 11:30:25;;;;;;;1.53;0.70;;;;;;;22.30;45.32;96426.13;5033380;28;20981;-71
2023/09/22 11:32:51;;;;;;;2.40;0.90;;;;;;;22.01;45.86;96429.72;5030872;28;20434;-70